Terminal Aerodrome Forecast
Issued by NWS Buffalo, NY

Home | Current Version | Previous Version | Text Only | Print | Product List | Glossary On
Versions: 1 2 3 4 5 6 7 8 9 10 11 12 13 14 15 16 17 18 19 20 21 22 23 24 25 26 27
000
FTUS41 KBUF 272300
TAFROC
TAF
KROC 272327Z 2800/2824 20009KT P6SM OVC060
     FM280100 20013KT P6SM BKN060
     FM280400 23014KT P6SM VCSH BKN070
     FM280500 24014KT 6SM -SHRA OVC040
     FM281000 27013KT P6SM VCSH OVC035
     FM281100 28014KT P6SM BKN035
     FM281400 29013KT P6SM BKN200
     FM282200 28008KT P6SM BKN200=

USA.gov is the U.S. government's official web portal to all federal, state and local government web resources and services.